Time;durP1;ratioP1;P1;durP2;ratioP2;P2;SDS_P1;SDS_P2;PMS_P1;PMS_P2;Temp;Humidity;BMP_temperature;BMP_pressure;BME280_temperature;BME280_humidity;BME280_pressure;Samples;Min_cycle;Max_cycle;Signal;HPM_P1;HPM_P2
2024/01/03 00:01:30;;;;;;;10.20;3.08;;;;;;;;;;5156907;27;20463;-65
2024/01/03 00:03:58;;;;;;;8.80;2.78;;;;;;;;;;5157220;27;20054;-65
2024/01/03 00:06:28;;;;;;;9.38;2.42;;;;;;;;;;5157565;27;20407;-65
2024/01/03 00:08:55;;;;;;;8.73;2.45;;;;;;;;;;5157158;27;20054;-65
2024/01/03 00:11:23;;;;;;;9.95;2.30;;;;;;;;;;5156683;27;20058;-65
2024/01/03 00:14:11;;;;;;;8.65;2.75;;;;;;;;;;5157386;27;20058;-65
2024/01/03 00:16:39;;;;;;;11.07;2.28;;;;;;;;;;5156799;27;20050;-65
2024/01/03 00:19:08;;;;;;;10.85;3.10;;;;;;;;;;5157049;27;20061;-67
2024/01/03 00:21:37;;;;;;;12.18;2.50;;;;;;;;;;5156926;27;20475;-65
2024/01/03 00:24:04;;;;;;;9.63;2.42;;;;;;;;;;5156781;27;20062;-65
2024/01/03 00:26:33;;;;;;;10.13;2.40;;;;;;;;;;5156903;27;20057;-65
2024/01/03 00:29:00;;;;;;;8.35;2.30;;;;;;;;;;5156834;27;20051;-65
2024/01/03 00:31:45;;;;;;;9.30;2.35;;;;;;;;;;5156907;27;20397;-65
2024/01/03 00:34:29;;;;;;;13.07;2.30;;;;;;;;;;5157028;27;20050;-65
2024/01/03 00:36:56;;;;;;;12.73;3.03;;;;;;;;;;5156463;27;20047;-65
2024/01/03 00:39:25;;;;;;;11.02;2.78;;;;;;;;;;5156585;27;20069;-66
2024/01/03 00:41:52;;;;;;;12.55;2.67;;;;;;;;;;5156440;27;20424;-65
2024/01/03 00:44:19;;;;;;;10.43;2.72;;;;;;;;;;5156174;27;20143;-66
2024/01/03 00:46:45;;;;;;;12.38;2.50;;;;;;;;;;5156271;27;20051;-65
2024/01/03 00:49:13;;;;;;;10.32;2.65;;;;;;;;;;5156247;27;20051;-65
2024/01/03 00:51:41;;;;;;;11.10;2.65;;;;;;;;;;5156547;27;20471;-65
2024/01/03 00:54:08;;;;;;;11.23;2.90;;;;;;;;;;5156349;27;20352;-65
2024/01/03 00:56:34;;;;;;;9.57;2.08;;;;;;;;;;5156521;27;20062;-65
2024/01/03 00:59:01;;;;;;;8.38;3.13;;;;;;;;;;5155664;27;20415;-65
2024/01/03 01:01:28;;;;;;;11.95;2.83;;;;;;;;;;5156293;27;20047;-65
2024/01/03 01:03:55;;;;;;;10.23;2.40;;;;;;;;;;5155985;27;20050;-66
2024/01/03 01:06:22;;;;;;;11.07;2.75;;;;;;;;;;5155845;27;20057;-65
2024/01/03 01:08:50;;;;;;;13.15;3.40;;;;;;;;;;5156286;27;20054;-65
2024/01/03 01:11:17;;;;;;;9.02;2.60;;;;;;;;;;5155514;27;20420;-65
2024/01/03 01:13:44;;;;;;;14.07;2.63;;;;;;;;;;5156410;27;20047;-65
2024/01/03 01:16:11;;;;;;;10.45;2.55;;;;;;;;;;5155676;27;20062;-65
2024/01/03 01:18:39;;;;;;;12.48;2.53;;;;;;;;;;5155530;27;20051;-65
2024/01/03 01:21:05;;;;;;;11.18;2.63;;;;;;;;;;5155767;27;20055;-65
2024/01/03 01:23:34;;;;;;;9.63;2.30;;;;;;;;;;5155364;27;20047;-65
2024/01/03 01:26:02;;;;;;;11.50;2.60;;;;;;;;;;5155642;27;20053;-65
2024/01/03 01:28:29;;;;;;;11.00;2.58;;;;;;;;;;5155745;27;20054;-65
2024/01/03 01:30:56;;;;;;;9.52;2.47;;;;;;;;;;5155732;27;20061;-65
2024/01/03 01:33:23;;;;;;;10.18;2.67;;;;;;;;;;5155637;27;20051;-65
2024/01/03 01:35:49;;;;;;;9.02;2.42;;;;;;;;;;5154993;27;20047;-65
2024/01/03 01:38:16;;;;;;;8.93;2.40;;;;;;;;;;5154927;27;20051;-65
2024/01/03 01:40:45;;;;;;;10.07;2.30;;;;;;;;;;5154870;27;20058;-65
2024/01/03 01:43:14;;;;;;;13.77;2.65;;;;;;;;;;5154975;27;20047;-66
2024/01/03 01:45:40;;;;;;;11.13;2.20;;;;;;;;;;5155303;27;20055;-65
2024/01/03 01:48:08;;;;;;;10.60;2.65;;;;;;;;;;5155109;27;20061;-65
2024/01/03 01:50:35;;;;;;;14.52;2.75;;;;;;;;;;5155227;27;20055;-65
2024/01/03 01:53:02;;;;;;;14.10;3.00;;;;;;;;;;5155007;27;20415;-65
2024/01/03 01:55:28;;;;;;;14.07;3.15;;;;;;;;;;5154617;27;20070;-64
2024/01/03 01:57:55;;;;;;;10.27;2.47;;;;;;;;;;5154850;27;20050;-65
2024/01/03 02:00:23;;;;;;;9.45;1.98;;;;;;;;;;5154589;27;20149;-65
2024/01/03 02:02:50;;;;;;;10.23;2.42;;;;;;;;;;5152581;27;20046;-65
2024/01/03 02:05:18;;;;;;;11.63;2.70;;;;;;;;;;5145393;27;20062;-65
2024/01/03 02:07:45;;;;;;;11.00;3.13;;;;;;;;;;5133860;27;20404;-65
2024/01/03 02:10:12;;;;;;;18.20;3.33;;;;;;;;;;5134198;27;20054;-65
2024/01/03 02:12:39;;;;;;;9.18;2.53;;;;;;;;;;5134626;27;20332;-65
2024/01/03 02:15:06;;;;;;;9.30;2.78;;;;;;;;;;5133530;27;20407;-65
2024/01/03 02:17:35;;;;;;;9.38;2.50;;;;;;;;;;5133856;27;20050;-65
2024/01/03 02:20:02;;;;;;;8.80;2.53;;;;;;;;;;5133422;27;20047;-65
2024/01/03 02:22:31;;;;;;;8.85;2.60;;;;;;;;;;5134093;27;20396;-65
2024/01/03 02:24:58;;;;;;;10.73;2.22;;;;;;;;;;5133662;27;20047;-65
2024/01/03 02:27:25;;;;;;;10.15;2.85;;;;;;;;;;5134121;27;20047;-65
2024/01/03 02:29:52;;;;;;;11.15;2.33;;;;;;;;;;5133433;27;20059;-65
2024/01/03 02:32:21;;;;;;;9.30;2.50;;;;;;;;;;5133700;27;20062;-68
2024/01/03 02:34:48;;;;;;;12.38;2.58;;;;;;;;;;5133850;27;20080;-65
2024/01/03 02:37:18;;;;;;;9.25;2.67;;;;;;;;;;5133069;27;20051;-66
2024/01/03 02:39:46;;;;;;;9.63;2.33;;;;;;;;;;5133778;27;20047;-65
2024/01/03 02:42:13;;;;;;;9.40;2.03;;;;;;;;;;5133841;27;20055;-65
2024/01/03 02:44:40;;;;;;;8.80;1.77;;;;;;;;;;5133279;27;20050;-65
2024/01/03 02:47:07;;;;;;;10.45;2.25;;;;;;;;;;5133523;27;20377;-65
2024/01/03 02:49:33;;;;;;;7.50;2.90;;;;;;;;;;5141151;27;20403;-65
2024/01/03 02:52:01;;;;;;;7.43;1.88;;;;;;;;;;5154101;27;20396;-65
2024/01/03 02:54:28;;;;;;;7.72;2.08;;;;;;;;;;5154061;27;20488;-65
2024/01/03 02:56:57;;;;;;;10.43;2.08;;;;;;;;;;5154330;27;20047;-65
2024/01/03 02:59:24;;;;;;;12.18;2.53;;;;;;;;;;5154126;27;20050;-65
2024/01/03 03:01:51;;;;;;;8.02;2.13;;;;;;;;;;5154026;27;20057;-65
2024/01/03 03:04:17;;;;;;;10.60;2.17;;;;;;;;;;5153327;27;20480;-65
2024/01/03 03:06:44;;;;;;;9.15;1.98;;;;;;;;;;5153748;27;20053;-65
2024/01/03 03:09:11;;;;;;;9.90;2.38;;;;;;;;;;5153338;27;20058;-65
2024/01/03 03:11:38;;;;;;;10.15;2.97;;;;;;;;;;5153768;27;20480;-65
2024/01/03 03:14:07;;;;;;;8.48;2.05;;;;;;;;;;5154049;27;20047;-65
2024/01/03 03:16:34;;;;;;;7.22;1.80;;;;;;;;;;5153805;27;20047;-65
2024/01/03 03:19:03;;;;;;;9.10;1.70;;;;;;;;;;5154217;27;20062;-65
2024/01/03 03:21:30;;;;;;;8.17;1.80;;;;;;;;;;5153885;27;20369;-65
2024/01/03 03:23:57;;;;;;;7.63;1.52;;;;;;;;;;5153320;27;20484;-65
2024/01/03 03:26:23;;;;;;;7.20;1.73;;;;;;;;;;5153544;27;20047;-65
2024/01/03 03:28:51;;;;;;;6.80;1.92;;;;;;;;;;5157868;27;20054;-66
2024/01/03 03:31:19;;;;;;;7.63;1.65;;;;;;;;;;5157988;27;20051;-65
2024/01/03 03:33:45;;;;;;;4.72;1.70;;;;;;;;;;5158244;27;20471;-65
2024/01/03 03:36:13;;;;;;;6.68;1.85;;;;;;;;;;5157405;27;20526;-65
2024/01/03 03:38:39;;;;;;;6.40;2.00;;;;;;;;;;5157387;27;20058;-65
2024/01/03 03:41:08;;;;;;;7.00;2.20;;;;;;;;;;5157096;27;20058;-65
2024/01/03 03:43:35;;;;;;;5.85;1.88;;;;;;;;;;5157387;27;20046;-65
2024/01/03 03:46:02;;;;;;;7.90;1.90;;;;;;;;;;5157653;27;20055;-65
2024/01/03 03:48:30;;;;;;;7.95;1.77;;;;;;;;;;5157589;27;20377;-65
2024/01/03 03:50:57;;;;;;;7.78;2.00;;;;;;;;;;5156985;27;20095;-65
2024/01/03 03:53:24;;;;;;;8.98;2.35;;;;;;;;;;5157497;27;20058;-65
2024/01/03 04:01:37;;;;;;;9.07;2.72;;;;;;;;;;5161558;27;20031;-65
2024/01/03 04:09:53;;;;;;;8.75;1.92;;;;;;;;;;5163583;27;20051;-65
2024/01/03 04:23:59;;;;;;;7.47;2.05;;;;;;;;;;5157048;27;20495;-65
2024/01/03 04:26:26;;;;;;;5.63;1.50;;;;;;;;;;5156847;27;20051;-65
2024/01/03 04:29:11;;;;;;;7.07;1.65;;;;;;;;;;5157077;27;20407;-65
2024/01/03 04:38:03;;;;;;;8.32;1.88;;;;;;;;;;5156543;27;20043;-65
2024/01/03 04:40:48;;;;;;;9.75;1.92;;;;;;;;;;5155352;27;20073;-65
2024/01/03 04:46:37;;;;;;;7.55;1.55;;;;;;;;;;5156582;27;20035;-65
2024/01/03 04:49:05;;;;;;;9.70;2.30;;;;;;;;;;5154268;27;20050;-65
2024/01/03 04:51:32;;;;;;;7.72;2.28;;;;;;;;;;5155416;27;20062;-65
2024/01/03 04:53:59;;;;;;;8.50;2.03;;;;;;;;;;5155949;27;20403;-65
2024/01/03 05:05:36;;;;;;;9.93;2.83;;;;;;;;;;5162151;27;20030;-65
2024/01/03 05:08:03;;;;;;;9.32;2.28;;;;;;;;;;5156155;27;20388;-64
2024/01/03 05:13:51;;;;;;;10.90;2.80;;;;;;;;;;5156535;27;20034;-64
2024/01/03 05:25:09;;;;;;;9.13;2.22;;;;;;;;;;5161996;27;20050;-65
2024/01/03 05:30:40;;;;;;;6.10;1.65;;;;;;;;;;5155806;27;20458;-65
2024/01/03 05:38:55;;;;;;;7.15;1.90;;;;;;;;;;5161801;27;20455;-65
2024/01/03 05:41:22;;;;;;;6.53;1.80;;;;;;;;;;5155351;27;20062;-65
2024/01/03 05:43:48;;;;;;;5.35;1.63;;;;;;;;;;5155262;27;20042;-65
2024/01/03 05:46:15;;;;;;;7.72;1.83;;;;;;;;;;5154811;27;20050;-65
2024/01/03 05:48:42;;;;;;;4.95;1.77;;;;;;;;;;5154806;27;20059;-64
2024/01/03 05:51:10;;;;;;;8.02;1.70;;;;;;;;;;5154630;27;20467;-65
2024/01/03 05:53:36;;;;;;;4.05;1.25;;;;;;;;;;5155306;27;20046;-64
2024/01/03 05:56:06;;;;;;;7.50;2.00;;;;;;;;;;5154712;27;20484;-64
2024/01/03 05:58:32;;;;;;;6.65;1.60;;;;;;;;;;5155232;27;20058;-65
2024/01/03 06:00:59;;;;;;;4.03;1.58;;;;;;;;;;5154493;27;20054;-65
2024/01/03 06:03:26;;;;;;;4.90;1.33;;;;;;;;;;5154734;27;20050;-65
2024/01/03 06:05:53;;;;;;;5.68;1.50;;;;;;;;;;5154459;27;20046;-66
2024/01/03 06:08:20;;;;;;;5.55;1.60;;;;;;;;;;5154848;27;20061;-65
2024/01/03 06:10:46;;;;;;;4.80;1.30;;;;;;;;;;5154936;27;20050;-65
2024/01/03 06:13:15;;;;;;;4.20;1.33;;;;;;;;;;5155088;27;20051;-65
2024/01/03 06:15:42;;;;;;;5.50;1.85;;;;;;;;;;5154689;27;20051;-65
2024/01/03 06:18:09;;;;;;;4.43;1.30;;;;;;;;;;5154735;27;20061;-64
2024/01/03 06:20:35;;;;;;;5.90;1.63;;;;;;;;;;5154581;27;20050;-65
2024/01/03 06:23:02;;;;;;;4.90;1.58;;;;;;;;;;5154837;27;20502;-65
2024/01/03 06:25:31;;;;;;;7.00;1.75;;;;;;;;;;5154282;27;20408;-64
2024/01/03 06:27:57;;;;;;;6.05;1.58;;;;;;;;;;5153970;27;20050;-65
2024/01/03 06:30:25;;;;;;;3.75;1.60;;;;;;;;;;5154491;27;20479;-65
2024/01/03 06:32:52;;;;;;;6.68;2.00;;;;;;;;;;5154781;27;20487;-65
2024/01/03 06:35:19;;;;;;;7.22;1.90;;;;;;;;;;5154029;27;20054;-65
2024/01/03 06:37:46;;;;;;;8.60;2.33;;;;;;;;;;5154312;27;20054;-65
2024/01/03 06:40:13;;;;;;;7.38;1.80;;;;;;;;;;5152888;27;20051;-65
2024/01/03 06:42:40;;;;;;;10.57;1.88;;;;;;;;;;5137248;27;20051;-64
2024/01/03 06:45:07;;;;;;;6.72;1.67;;;;;;;;;;5153061;27;20050;-64
2024/01/03 06:47:35;;;;;;;8.63;2.45;;;;;;;;;;5152886;27;20047;-64
2024/01/03 06:50:02;;;;;;;6.05;1.95;;;;;;;;;;5153218;27;20051;-64
2024/01/03 06:52:28;;;;;;;7.10;2.33;;;;;;;;;;5153035;27;20051;-65
2024/01/03 06:54:57;;;;;;;7.22;1.90;;;;;;;;;;5153739;27;20475;-65
2024/01/03 06:57:23;;;;;;;8.77;1.90;;;;;;;;;;5154395;27;20059;-65
2024/01/03 06:59:50;;;;;;;6.40;1.80;;;;;;;;;;5154245;27;20050;-65
2024/01/03 07:02:17;;;;;;;5.78;1.90;;;;;;;;;;5153578;27;20407;-64
2024/01/03 07:04:45;;;;;;;7.25;2.15;;;;;;;;;;5153862;27;20053;-64
2024/01/03 07:07:12;;;;;;;12.38;2.33;;;;;;;;;;5153516;27;20054;-66
2024/01/03 07:09:39;;;;;;;11.85;2.38;;;;;;;;;;5153651;27;20050;-64
2024/01/03 07:12:06;;;;;;;6.85;1.70;;;;;;;;;;5153801;27;20050;-65
2024/01/03 07:14:33;;;;;;;6.55;1.70;;;;;;;;;;5153500;27;20046;-65
2024/01/03 07:17:00;;;;;;;8.68;2.00;;;;;;;;;;5153652;27;20058;-65
2024/01/03 07:19:26;;;;;;;5.60;1.98;;;;;;;;;;5153668;27;20113;-65
2024/01/03 07:21:55;;;;;;;8.38;2.25;;;;;;;;;;5153522;27;20070;-65
2024/01/03 07:24:21;;;;;;;8.23;2.33;;;;;;;;;;5154256;27;20051;-65
2024/01/03 07:26:48;;;;;;;8.10;2.03;;;;;;;;;;5153656;27;20080;-65
2024/01/03 07:29:15;;;;;;;7.90;2.10;;;;;;;;;;5153289;27;20050;-65
2024/01/03 07:31:42;;;;;;;7.68;2.20;;;;;;;;;;5153953;27;20057;-65
2024/01/03 07:34:08;;;;;;;6.03;1.65;;;;;;;;;;5153513;27;20061;-65
2024/01/03 07:36:35;;;;;;;6.47;1.88;;;;;;;;;;5153360;27;20391;-65
2024/01/03 07:39:05;;;;;;;8.30;2.78;;;;;;;;;;5153184;27;20415;-65
2024/01/03 07:41:35;;;;;;;11.02;2.70;;;;;;;;;;5153559;27;20053;-65
2024/01/03 07:44:02;;;;;;;10.45;3.00;;;;;;;;;;5153297;27;20054;-65
2024/01/03 07:46:29;;;;;;;11.88;2.90;;;;;;;;;;5153764;27;20053;-65
2024/01/03 07:48:56;;;;;;;12.25;3.38;;;;;;;;;;5153649;27;20413;-65
2024/01/03 07:51:22;;;;;;;9.43;2.90;;;;;;;;;;5152954;27;20054;-65
2024/01/03 07:53:49;;;;;;;11.00;3.42;;;;;;;;;;5153478;27;20368;-65
2024/01/03 07:56:17;;;;;;;12.90;3.13;;;;;;;;;;5153533;27;20054;-65
2024/01/03 07:58:44;;;;;;;14.00;2.95;;;;;;;;;;5153490;27;20051;-65
2024/01/03 08:01:11;;;;;;;14.05;3.25;;;;;;;;;;5153634;27;20053;-62
2024/01/03 08:03:38;;;;;;;13.30;3.25;;;;;;;;;;5153515;27;20051;-65
2024/01/03 08:06:05;;;;;;;9.85;2.72;;;;;;;;;;5153508;27;20065;-64
2024/01/03 08:08:32;;;;;;;11.85;2.47;;;;;;;;;;5153197;27;20069;-64
2024/01/03 08:10:59;;;;;;;13.32;3.35;;;;;;;;;;5153351;27;20055;-64
2024/01/03 08:13:27;;;;;;;11.25;3.53;;;;;;;;;;5153202;27;20050;-64
2024/01/03 08:15:54;;;;;;;15.13;3.47;;;;;;;;;;5156726;27;20058;-64
2024/01/03 08:18:20;;;;;;;9.43;2.58;;;;;;;;;;5156739;27;20058;-64
2024/01/03 08:20:47;;;;;;;8.23;2.63;;;;;;;;;;5156736;27;20051;-64
2024/01/03 08:23:14;;;;;;;9.35;2.60;;;;;;;;;;5156978;27;20054;-64
2024/01/03 08:25:41;;;;;;;9.25;2.88;;;;;;;;;;5156840;27;20376;-64
2024/01/03 08:28:08;;;;;;;11.85;2.75;;;;;;;;;;5156967;27;20051;-65
2024/01/03 08:30:36;;;;;;;15.40;3.15;;;;;;;;;;5156370;27;20054;-64
2024/01/03 08:33:03;;;;;;;12.90;2.78;;;;;;;;;;5156896;27;20468;-65
2024/01/03 08:35:30;;;;;;;9.50;3.05;;;;;;;;;;5156375;27;20046;-66
2024/01/03 08:37:57;;;;;;;14.73;3.45;;;;;;;;;;5156840;27;20047;-66
2024/01/03 08:40:23;;;;;;;13.02;3.28;;;;;;;;;;5156634;27;20051;-66
2024/01/03 08:42:50;;;;;;;9.15;2.47;;;;;;;;;;5156737;27;20051;-68
2024/01/03 08:45:17;;;;;;;10.50;2.30;;;;;;;;;;5156260;27;20051;-66
2024/01/03 08:47:45;;;;;;;8.85;2.42;;;;;;;;;;5156641;27;20058;-66
2024/01/03 08:50:13;;;;;;;8.18;2.33;;;;;;;;;;5155988;27;20051;-66
2024/01/03 08:52:41;;;;;;;10.02;2.38;;;;;;;;;;5156168;27;20054;-66
2024/01/03 08:55:07;;;;;;;8.45;2.08;;;;;;;;;;5156619;27;20050;-66
2024/01/03 08:57:34;;;;;;;6.85;2.20;;;;;;;;;;5156273;27;20058;-66
2024/01/03 09:00:01;;;;;;;9.77;2.47;;;;;;;;;;5156423;27;20057;-65
2024/01/03 09:02:28;;;;;;;8.63;2.17;;;;;;;;;;5156316;27;20057;-66
2024/01/03 09:04:56;;;;;;;7.75;1.98;;;;;;;;;;5155593;27;20050;-65
2024/01/03 09:07:23;;;;;;;8.45;2.83;;;;;;;;;;5156218;27;20058;-66
2024/01/03 09:09:49;;;;;;;10.90;2.83;;;;;;;;;;5155903;27;20164;-66
2024/01/03 09:12:18;;;;;;;9.20;2.47;;;;;;;;;;5156246;27;20046;-66
2024/01/03 09:14:45;;;;;;;8.52;2.63;;;;;;;;;;5155290;27;20058;-66
2024/01/03 09:17:11;;;;;;;9.85;2.55;;;;;;;;;;5156032;27;20046;-66
2024/01/03 09:19:38;;;;;;;13.30;2.92;;;;;;;;;;5155441;27;20055;-65
2024/01/03 09:22:06;;;;;;;8.60;2.67;;;;;;;;;;5155928;27;20050;-66
2024/01/03 09:24:33;;;;;;;14.10;2.95;;;;;;;;;;5154795;27;20050;-65
2024/01/03 09:27:00;;;;;;;10.40;2.38;;;;;;;;;;5155742;27;20042;-66
2024/01/03 09:29:27;;;;;;;12.80;3.38;;;;;;;;;;5155810;27;20055;-66
2024/01/03 09:31:54;;;;;;;11.25;3.30;;;;;;;;;;5155944;27;20471;-66
2024/01/03 09:34:20;;;;;;;13.10;3.13;;;;;;;;;;5155322;27;20534;-66
2024/01/03 09:36:47;;;;;;;9.93;2.70;;;;;;;;;;5155262;27;20043;-66
2024/01/03 09:39:17;;;;;;;15.63;3.80;;;;;;;;;;5155508;27;20055;-66
2024/01/03 09:41:44;;;;;;;11.48;3.10;;;;;;;;;;5155618;27;20132;-66
2024/01/03 09:44:11;;;;;;;12.50;3.38;;;;;;;;;;5154996;27;20047;-65
2024/01/03 09:46:38;;;;;;;16.08;3.25;;;;;;;;;;5155106;27;20047;-65
2024/01/03 09:49:04;;;;;;;14.43;3.92;;;;;;;;;;5154941;27;20047;-64
2024/01/03 09:51:31;;;;;;;12.70;3.08;;;;;;;;;;5154735;27;20062;-65
2024/01/03 09:53:59;;;;;;;11.15;3.83;;;;;;;;;;5154793;27;20046;-66
2024/01/03 09:56:27;;;;;;;18.25;3.33;;;;;;;;;;5155033;27;20347;-66
2024/01/03 09:58:54;;;;;;;15.02;3.78;;;;;;;;;;5155205;27;20499;-67
2024/01/03 10:01:21;;;;;;;12.85;3.50;;;;;;;;;;5154862;27;20407;-67
2024/01/03 10:03:47;;;;;;;16.02;3.30;;;;;;;;;;5154720;27;20053;-67
2024/01/03 10:06:14;;;;;;;12.73;3.38;;;;;;;;;;5154675;27;20065;-66
2024/01/03 10:08:41;;;;;;;15.80;4.80;;;;;;;;;;5154711;27;20050;-66
2024/01/03 10:11:21;;;;;;;13.60;4.53;;;;;;;;;;5154436;27;20050;-66
2024/01/03 10:13:51;;;;;;;14.43;4.13;;;;;;;;;;5154259;27;20074;-66
2024/01/03 10:16:25;;;;;;;19.27;3.13;;;;;;;;;;5154471;27;20042;-67
2024/01/03 10:19:10;;;;;;;15.40;3.55;;;;;;;;;;5154821;27;20487;-66
2024/01/03 10:21:38;;;;;;;10.50;3.08;;;;;;;;;;5154560;27;20050;-66
2024/01/03 10:24:06;;;;;;;18.58;3.30;;;;;;;;;;5154802;27;20525;-66
2024/01/03 10:26:33;;;;;;;16.42;3.22;;;;;;;;;;5154241;27;20403;-65
2024/01/03 10:29:11;;;;;;;9.60;2.80;;;;;;;;;;5154775;27;20467;-66
2024/01/03 10:31:38;;;;;;;9.02;2.63;;;;;;;;;;5154201;27;20054;-64
2024/01/03 10:34:05;;;;;;;11.38;2.35;;;;;;;;;;5153934;27;20077;-65
2024/01/03 10:36:33;;;;;;;11.15;2.97;;;;;;;;;;5153321;27;20065;-65
2024/01/03 10:39:00;;;;;;;12.73;2.70;;;;;;;;;;5154236;27;20051;-65
2024/01/03 10:41:27;;;;;;;8.73;2.33;;;;;;;;;;5153927;27;20050;-64
2024/01/03 10:43:55;;;;;;;8.68;2.53;;;;;;;;;;5154001;27;20062;-65
2024/01/03 10:46:23;;;;;;;9.60;2.38;;;;;;;;;;5154237;27;20043;-63
2024/01/03 10:48:50;;;;;;;9.85;3.22;;;;;;;;;;5153891;27;20046;-65
2024/01/03 10:51:19;;;;;;;13.57;3.72;;;;;;;;;;5154083;27;20055;-65
2024/01/03 10:53:46;;;;;;;8.60;2.50;;;;;;;;;;5153762;27;20058;-64
2024/01/03 10:56:13;;;;;;;6.80;2.17;;;;;;;;;;5153858;27;20054;-64
2024/01/03 10:58:40;;;;;;;9.95;2.17;;;;;;;;;;5154146;27;20447;-64
2024/01/03 11:01:11;;;;;;;8.48;1.98;;;;;;;;;;5154207;27;20062;-63
2024/01/03 11:03:42;;;;;;;8.52;2.67;;;;;;;;;;5153946;27;20055;-63
2024/01/03 11:06:11;;;;;;;8.48;2.40;;;;;;;;;;5154007;27;20047;-63
2024/01/03 11:08:43;;;;;;;8.70;2.40;;;;;;;;;;5154239;27;20058;-63
2024/01/03 11:11:10;;;;;;;10.30;2.38;;;;;;;;;;5153904;27;20483;-63
2024/01/03 11:13:39;;;;;;;6.90;2.08;;;;;;;;;;5153419;27;20058;-63
2024/01/03 11:16:09;;;;;;;7.90;2.33;;;;;;;;;;5154090;27;20062;-63
2024/01/03 11:18:53;;;;;;;9.25;2.40;;;;;;;;;;5153803;27;20407;-63
2024/01/03 11:21:37;;;;;;;9.18;2.08;;;;;;;;;;5153534;27;20047;-63
2024/01/03 11:24:06;;;;;;;10.05;2.08;;;;;;;;;;5152913;27;20063;-64
2024/01/03 11:26:51;;;;;;;7.80;2.15;;;;;;;;;;5153747;27;20050;-64
2024/01/03 11:29:33;;;;;;;11.63;2.13;;;;;;;;;;5153279;27;20054;-64
2024/01/03 11:32:02;;;;;;;10.48;2.10;;;;;;;;;;5153481;27;20054;-64
2024/01/03 11:34:39;;;;;;;7.63;1.95;;;;;;;;;;5153552;27;20055;-64
2024/01/03 11:37:07;;;;;;;7.82;2.35;;;;;;;;;;5153847;27;20399;-64
2024/01/03 11:39:34;;;;;;;9.60;2.80;;;;;;;;;;5153382;27;20495;-64
2024/01/03 11:42:01;;;;;;;7.90;2.90;;;;;;;;;;5153412;27;20050;-64
2024/01/03 11:44:28;;;;;;;10.77;2.47;;;;;;;;;;5153434;27;20055;-64
2024/01/03 11:46:58;;;;;;;12.52;2.58;;;;;;;;;;5153224;27;20066;-64
2024/01/03 11:49:24;;;;;;;9.23;2.92;;;;;;;;;;5156275;27;20452;-64
2024/01/03 11:51:53;;;;;;;12.27;2.92;;;;;;;;;;5156852;27;20055;-64
2024/01/03 11:54:19;;;;;;;13.30;3.33;;;;;;;;;;5157597;27;20394;-64
2024/01/03 11:56:46;;;;;;;12.38;3.47;;;;;;;;;;5157307;27;20051;-64
2024/01/03 11:59:13;;;;;;;10.05;2.30;;;;;;;;;;5157839;27;20353;-64
2024/01/03 12:01:54;;;;;;;13.45;2.63;;;;;;;;;;5157270;27;20050;-64
2024/01/03 12:04:21;;;;;;;12.93;2.88;;;;;;;;;;5156720;27;20055;-64
2024/01/03 12:06:48;;;;;;;11.93;3.05;;;;;;;;;;5157140;27;20051;-64
2024/01/03 12:09:17;;;;;;;10.23;2.92;;;;;;;;;;5156934;27;20054;-64
2024/01/03 12:11:44;;;;;;;9.83;2.37;;;;;;;;;;5157186;27;20057;-64
2024/01/03 12:14:11;;;;;;;13.10;2.90;;;;;;;;;;5156992;27;20057;-64
2024/01/03 12:16:45;;;;;;;11.07;2.97;;;;;;;;;;5157025;27;20054;-64
2024/01/03 12:19:21;;;;;;;10.52;3.05;;;;;;;;;;5156635;27;20047;-63
2024/01/03 12:21:53;;;;;;;10.48;2.80;;;;;;;;;;5156901;27;20061;-64
2024/01/03 12:24:21;;;;;;;11.98;2.83;;;;;;;;;;5156423;27;20054;-63
2024/01/03 12:26:49;;;;;;;10.60;2.50;;;;;;;;;;5156656;27;20054;-64
2024/01/03 12:29:15;;;;;;;9.15;2.85;;;;;;;;;;5156718;27;20061;-64
2024/01/03 12:31:42;;;;;;;11.02;3.17;;;;;;;;;;5156565;27;20043;-64
2024/01/03 12:34:09;;;;;;;8.05;2.72;;;;;;;;;;5156722;27;20399;-64
2024/01/03 12:36:36;;;;;;;12.20;2.67;;;;;;;;;;5156747;27;20434;-64
2024/01/03 12:39:03;;;;;;;13.80;3.92;;;;;;;;;;5156813;27;20051;-64
2024/01/03 12:41:31;;;;;;;12.15;3.03;;;;;;;;;;5156731;27;20077;-64
2024/01/03 12:43:58;;;;;;;8.55;2.40;;;;;;;;;;5156607;27;20055;-65
2024/01/03 12:46:25;;;;;;;8.60;2.50;;;;;;;;;;5156663;27;20057;-63
2024/01/03 12:48:51;;;;;;;8.75;3.00;;;;;;;;;;5156158;27;20399;-63
2024/01/03 12:51:18;;;;;;;8.95;3.15;;;;;;;;;;5156335;27;20066;-63
2024/01/03 12:53:45;;;;;;;9.32;3.25;;;;;;;;;;5155870;27;20160;-64
2024/01/03 12:56:12;;;;;;;9.30;2.22;;;;;;;;;;5155915;27;20054;-63
2024/01/03 12:58:40;;;;;;;9.80;2.60;;;;;;;;;;5156588;27;20043;-63
2024/01/03 13:01:07;;;;;;;9.40;2.20;;;;;;;;;;5155122;27;20403;-65
2024/01/03 13:03:33;;;;;;;7.95;2.25;;;;;;;;;;5156173;27;20051;-63
2024/01/03 13:06:00;;;;;;;8.95;2.38;;;;;;;;;;5155961;27;20456;-63
2024/01/03 13:08:27;;;;;;;10.68;2.65;;;;;;;;;;5156251;27;20372;-64
2024/01/03 13:10:54;;;;;;;10.95;2.75;;;;;;;;;;5155973;27;20062;-63
2024/01/03 13:13:21;;;;;;;11.20;2.78;;;;;;;;;;5156177;27;20063;-63
2024/01/03 13:15:51;;;;;;;11.27;2.38;;;;;;;;;;5156113;27;20058;-63
2024/01/03 13:18:18;;;;;;;11.23;2.72;;;;;;;;;;5155937;27;20046;-64
2024/01/03 13:20:45;;;;;;;12.48;2.88;;;;;;;;;;5155787;27;20403;-64
2024/01/03 13:23:12;;;;;;;10.00;2.88;;;;;;;;;;5155677;27;20046;-64
2024/01/03 13:25:39;;;;;;;14.77;3.05;;;;;;;;;;5155343;27;20063;-63
2024/01/03 13:28:06;;;;;;;11.43;2.90;;;;;;;;;;5155377;27;20043;-63
2024/01/03 13:30:32;;;;;;;14.85;3.20;;;;;;;;;;5155393;27;20047;-63
2024/01/03 13:33:01;;;;;;;16.40;4.10;;;;;;;;;;5155680;27;20240;-63
2024/01/03 13:35:27;;;;;;;17.67;3.85;;;;;;;;;;5155366;27;20047;-63
2024/01/03 13:37:54;;;;;;;15.70;4.30;;;;;;;;;;5155351;27;20047;-65
2024/01/03 13:40:21;;;;;;;17.08;4.22;;;;;;;;;;5155340;27;20054;-64
2024/01/03 13:42:48;;;;;;;19.73;4.30;;;;;;;;;;5155267;27;20061;-64
2024/01/03 13:45:15;;;;;;;16.35;4.32;;;;;;;;;;5155179;27;20488;-63
2024/01/03 13:47:41;;;;;;;13.48;4.88;;;;;;;;;;5155439;27;20047;-64
2024/01/03 13:50:10;;;;;;;22.77;4.57;;;;;;;;;;5155277;27;20061;-64
2024/01/03 13:52:39;;;;;;;18.23;4.28;;;;;;;;;;5154772;27;20058;-64
2024/01/03 13:55:06;;;;;;;18.98;3.97;;;;;;;;;;5155551;27;20046;-64
2024/01/03 13:57:36;;;;;;;21.20;4.68;;;;;;;;;;5155380;27;20058;-64
2024/01/03 14:00:04;;;;;;;18.77;4.22;;;;;;;;;;5154554;27;20495;-66
2024/01/03 14:02:31;;;;;;;14.82;3.97;;;;;;;;;;5155010;27;20407;-64
2024/01/03 14:04:58;;;;;;;14.43;3.63;;;;;;;;;;5155074;27;20472;-64
2024/01/03 14:07:26;;;;;;;12.02;3.50;;;;;;;;;;5154943;27;20419;-64
2024/01/03 14:09:53;;;;;;;16.75;4.00;;;;;;;;;;5155305;27;20051;-64
2024/01/03 14:12:20;;;;;;;14.95;3.92;;;;;;;;;;5155049;27;20046;-64
2024/01/03 14:14:47;;;;;;;10.32;3.35;;;;;;;;;;5155152;27;20051;-64
2024/01/03 14:17:13;;;;;;;5.65;2.08;;;;;;;;;;5154813;27;20051;-64
2024/01/03 14:19:40;;;;;;;7.65;1.92;;;;;;;;;;5154604;27;20483;-63
2024/01/03 14:22:07;;;;;;;5.63;1.75;;;;;;;;;;5154777;27;20061;-64
2024/01/03 14:24:35;;;;;;;3.53;1.20;;;;;;;;;;5154968;27;20499;-64
2024/01/03 14:27:02;;;;;;;7.28;1.60;;;;;;;;;;5154729;27;20047;-64
2024/01/03 14:29:29;;;;;;;7.70;2.70;;;;;;;;;;5154786;27;20392;-64
2024/01/03 14:31:57;;;;;;;7.72;2.63;;;;;;;;;;5154355;27;20046;-65
2024/01/03 14:34:23;;;;;;;6.30;1.90;;;;;;;;;;5154008;27;20057;-64
2024/01/03 14:37:04;;;;;;;4.43;1.80;;;;;;;;;;5154772;27;20502;-65
2024/01/03 14:39:32;;;;;;;6.95;1.92;;;;;;;;;;5154878;27;20042;-65
2024/01/03 14:42:05;;;;;;;10.93;2.63;;;;;;;;;;5154775;27;20050;-64
2024/01/03 14:44:33;;;;;;;8.77;2.97;;;;;;;;;;5154128;27;20051;-64
2024/01/03 14:47:00;;;;;;;7.50;2.63;;;;;;;;;;5154481;27;20458;-64
2024/01/03 14:49:27;;;;;;;9.32;2.45;;;;;;;;;;5153798;27;20507;-64
2024/01/03 14:51:54;;;;;;;11.75;2.80;;;;;;;;;;5153702;27;20051;-64
2024/01/03 14:54:21;;;;;;;10.43;3.55;;;;;;;;;;5154334;27;20046;-64
2024/01/03 14:56:48;;;;;;;13.82;3.92;;;;;;;;;;5154622;27;20058;-64
2024/01/03 14:59:17;;;;;;;10.63;2.90;;;;;;;;;;5154026;27;20408;-64
2024/01/03 15:01:44;;;;;;;10.02;2.55;;;;;;;;;;5154213;27;20050;-64
2024/01/03 15:04:12;;;;;;;8.38;2.60;;;;;;;;;;5154502;27;20058;-64
2024/01/03 15:06:39;;;;;;;9.27;2.92;;;;;;;;;;5153978;27;20055;-64
2024/01/03 15:09:07;;;;;;;7.88;2.47;;;;;;;;;;5153717;27;20069;-65
2024/01/03 15:11:34;;;;;;;7.63;2.17;;;;;;;;;;5154313;27;20058;-65
2024/01/03 15:14:01;;;;;;;11.35;2.72;;;;;;;;;;5153838;27;20058;-64
2024/01/03 15:16:29;;;;;;;6.88;2.00;;;;;;;;;;5153704;27;20047;-65
2024/01/03 15:18:56;;;;;;;8.45;2.28;;;;;;;;;;5153463;27;20046;-65
2024/01/03 15:21:23;;;;;;;8.23;2.20;;;;;;;;;;5154177;27;20055;-65
2024/01/03 15:23:49;;;;;;;9.82;2.30;;;;;;;;;;5156189;27;20058;-64
2024/01/03 15:26:16;;;;;;;6.15;2.20;;;;;;;;;;5157814;27;20054;-65
2024/01/03 15:28:43;;;;;;;5.82;2.00;;;;;;;;;;5157921;27;20053;-65
2024/01/03 15:31:10;;;;;;;8.57;2.42;;;;;;;;;;5157975;27;20479;-65
2024/01/03 15:33:38;;;;;;;10.27;2.35;;;;;;;;;;5157451;27;20201;-64
2024/01/03 15:36:05;;;;;;;10.70;2.25;;;;;;;;;;5157912;27;20431;-65
2024/01/03 15:38:32;;;;;;;7.55;2.63;;;;;;;;;;5158157;27;20480;-65
2024/01/03 15:40:59;;;;;;;11.02;3.05;;;;;;;;;;5157436;27;20047;-65
2024/01/03 15:43:26;;;;;;;10.60;3.38;;;;;;;;;;5157702;27;20222;-63